sensor_id;sensor_type;location;lat;lon;timestamp;P1;durP1;ratioP1;P2;durP2;ratioP2
31808;SDS011;18379;48.208;-1.518;2023-03-14T00:03:04;51.37;;;47.73;;
31808;SDS011;18379;48.208;-1.518;2023-03-14T00:08:05;51.87;;;48.37;;
31808;SDS011;18379;48.208;-1.518;2023-03-14T00:13:06;52.13;;;48.57;;
31808;SDS011;18379;48.208;-1.518;2023-03-14T00:18:07;56.47;;;52.50;;
31808;SDS011;18379;48.208;-1.518;2023-03-14T00:23:07;52.37;;;48.80;;
31808;SDS011;18379;48.208;-1.518;2023-03-14T00:28:08;51.37;;;47.90;;
31808;SDS011;18379;48.208;-1.518;2023-03-14T00:33:09;52.10;;;48.53;;
31808;SDS011;18379;48.208;-1.518;2023-03-14T00:38:10;50.53;;;47.23;;
31808;SDS011;18379;48.208;-1.518;2023-03-14T00:43:10;50.43;;;47.00;;
31808;SDS011;18379;48.208;-1.518;2023-03-14T00:48:11;47.87;;;44.80;;
31808;SDS011;18379;48.208;-1.518;2023-03-14T00:53:13;48.53;;;45.40;;
31808;SDS011;18379;48.208;-1.518;2023-03-14T00:58:15;48.97;;;45.77;;
31808;SDS011;18379;48.208;-1.518;2023-03-14T01:03:16;47.90;;;45.10;;
31808;SDS011;18379;48.208;-1.518;2023-03-14T01:08:17;47.97;;;45.07;;
31808;SDS011;18379;48.208;-1.518;2023-03-14T01:13:18;47.30;;;44.60;;
31808;SDS011;18379;48.208;-1.518;2023-03-14T01:18:18;47.13;;;44.53;;
31808;SDS011;18379;48.208;-1.518;2023-03-14T01:23:19;48.07;;;45.17;;
31808;SDS011;18379;48.208;-1.518;2023-03-14T01:28:20;47.90;;;45.17;;
31808;SDS011;18379;48.208;-1.518;2023-03-14T01:33:21;48.37;;;45.13;;
31808;SDS011;18379;48.208;-1.518;2023-03-14T01:38:22;49.40;;;45.60;;
31808;SDS011;18379;48.208;-1.518;2023-03-14T01:43:23;49.40;;;46.03;;
31808;SDS011;18379;48.208;-1.518;2023-03-14T01:48:25;51.20;;;47.13;;
31808;SDS011;18379;48.208;-1.518;2023-03-14T01:53:31;52.00;;;47.40;;
31808;SDS011;18379;48.208;-1.518;2023-03-14T01:58:32;52.47;;;48.47;;
31808;SDS011;18379;48.208;-1.518;2023-03-14T02:03:44;52.07;;;47.83;;
31808;SDS011;18379;48.208;-1.518;2023-03-14T02:08:53;50.80;;;47.07;;
31808;SDS011;18379;48.208;-1.518;2023-03-14T02:13:55;52.37;;;48.37;;
31808;SDS011;18379;48.208;-1.518;2023-03-14T02:18:58;52.53;;;48.30;;
31808;SDS011;18379;48.208;-1.518;2023-03-14T02:24:20;54.13;;;49.47;;
31808;SDS011;18379;48.208;-1.518;2023-03-14T02:29:31;50.70;;;47.00;;
31808;SDS011;18379;48.208;-1.518;2023-03-14T02:34:36;51.37;;;47.03;;
31808;SDS011;18379;48.208;-1.518;2023-03-14T02:39:38;53.23;;;48.83;;
31808;SDS011;18379;48.208;-1.518;2023-03-14T02:44:52;49.97;;;46.47;;
31808;SDS011;18379;48.208;-1.518;2023-03-14T02:49:57;53.43;;;48.17;;
31808;SDS011;18379;48.208;-1.518;2023-03-14T02:55:04;53.47;;;48.80;;
31808;SDS011;18379;48.208;-1.518;2023-03-14T03:00:05;52.13;;;47.83;;
31808;SDS011;18379;48.208;-1.518;2023-03-14T03:05:08;56.57;;;51.43;;
31808;SDS011;18379;48.208;-1.518;2023-03-14T03:10:09;51.83;;;47.43;;
31808;SDS011;18379;48.208;-1.518;2023-03-14T03:15:10;51.47;;;46.73;;
31808;SDS011;18379;48.208;-1.518;2023-03-14T03:20:11;52.33;;;48.23;;
31808;SDS011;18379;48.208;-1.518;2023-03-14T03:25:12;48.67;;;44.70;;
31808;SDS011;18379;48.208;-1.518;2023-03-14T03:30:13;48.73;;;44.80;;
31808;SDS011;18379;48.208;-1.518;2023-03-14T03:35:14;46.93;;;43.73;;
31808;SDS011;18379;48.208;-1.518;2023-03-14T03:40:15;47.93;;;44.43;;
31808;SDS011;18379;48.208;-1.518;2023-03-14T03:45:16;47.30;;;44.00;;
31808;SDS011;18379;48.208;-1.518;2023-03-14T03:50:16;46.67;;;43.50;;
31808;SDS011;18379;48.208;-1.518;2023-03-14T03:55:17;47.30;;;43.93;;
31808;SDS011;18379;48.208;-1.518;2023-03-14T04:00:18;47.77;;;44.17;;
31808;SDS011;18379;48.208;-1.518;2023-03-14T04:05:19;46.90;;;43.63;;
31808;SDS011;18379;48.208;-1.518;2023-03-14T04:10:21;47.40;;;43.70;;
31808;SDS011;18379;48.208;-1.518;2023-03-14T04:15:22;46.37;;;42.83;;
31808;SDS011;18379;48.208;-1.518;2023-03-14T04:20:22;47.80;;;43.87;;
31808;SDS011;18379;48.208;-1.518;2023-03-14T04:25:23;47.23;;;43.77;;
31808;SDS011;18379;48.208;-1.518;2023-03-14T04:30:24;49.50;;;45.10;;
31808;SDS011;18379;48.208;-1.518;2023-03-14T04:35:25;49.27;;;45.13;;
31808;SDS011;18379;48.208;-1.518;2023-03-14T04:40:26;50.13;;;46.07;;
31808;SDS011;18379;48.208;-1.518;2023-03-14T04:45:27;52.20;;;48.00;;
31808;SDS011;18379;48.208;-1.518;2023-03-14T04:50:28;49.90;;;45.67;;
31808;SDS011;18379;48.208;-1.518;2023-03-14T04:55:28;53.90;;;49.90;;
31808;SDS011;18379;48.208;-1.518;2023-03-14T05:00:29;48.37;;;44.87;;
31808;SDS011;18379;48.208;-1.518;2023-03-14T05:05:30;53.67;;;49.37;;
31808;SDS011;18379;48.208;-1.518;2023-03-14T05:10:31;48.13;;;44.20;;
31808;SDS011;18379;48.208;-1.518;2023-03-14T05:15:32;48.23;;;44.50;;
31808;SDS011;18379;48.208;-1.518;2023-03-14T05:20:33;49.77;;;45.50;;
31808;SDS011;18379;48.208;-1.518;2023-03-14T05:25:34;53.73;;;49.10;;
31808;SDS011;18379;48.208;-1.518;2023-03-14T05:30:35;49.60;;;45.53;;
31808;SDS011;18379;48.208;-1.518;2023-03-14T05:35:36;49.40;;;45.33;;
31808;SDS011;18379;48.208;-1.518;2023-03-14T05:40:37;49.20;;;44.93;;
31808;SDS011;18379;48.208;-1.518;2023-03-14T05:45:38;48.77;;;44.37;;
31808;SDS011;18379;48.208;-1.518;2023-03-14T05:50:39;49.50;;;45.10;;
31808;SDS011;18379;48.208;-1.518;2023-03-14T05:55:40;47.43;;;43.37;;
31808;SDS011;18379;48.208;-1.518;2023-03-14T06:00:40;48.10;;;43.70;;
31808;SDS011;18379;48.208;-1.518;2023-03-14T06:05:41;53.47;;;48.63;;
31808;SDS011;18379;48.208;-1.518;2023-03-14T06:10:42;49.70;;;45.60;;
31808;SDS011;18379;48.208;-1.518;2023-03-14T06:15:43;52.90;;;48.27;;
31808;SDS011;18379;48.208;-1.518;2023-03-14T06:20:44;46.53;;;42.57;;
31808;SDS011;18379;48.208;-1.518;2023-03-14T06:25:45;48.50;;;44.20;;
31808;SDS011;18379;48.208;-1.518;2023-03-14T06:30:45;46.50;;;42.87;;
31808;SDS011;18379;48.208;-1.518;2023-03-14T06:35:46;45.00;;;41.37;;
31808;SDS011;18379;48.208;-1.518;2023-03-14T06:40:47;45.23;;;41.33;;
31808;SDS011;18379;48.208;-1.518;2023-03-14T06:45:48;44.27;;;40.97;;
31808;SDS011;18379;48.208;-1.518;2023-03-14T06:50:49;43.30;;;40.47;;
31808;SDS011;18379;48.208;-1.518;2023-03-14T06:55:50;44.83;;;40.80;;
31808;SDS011;18379;48.208;-1.518;2023-03-14T07:00:52;48.57;;;44.73;;
31808;SDS011;18379;48.208;-1.518;2023-03-14T07:05:56;43.20;;;40.30;;
31808;SDS011;18379;48.208;-1.518;2023-03-14T07:11:00;47.00;;;43.03;;
31808;SDS011;18379;48.208;-1.518;2023-03-14T07:16:00;48.87;;;44.67;;
31808;SDS011;18379;48.208;-1.518;2023-03-14T07:21:05;54.27;;;49.37;;
31808;SDS011;18379;48.208;-1.518;2023-03-14T07:26:27;44.50;;;40.83;;
31808;SDS011;18379;48.208;-1.518;2023-03-14T07:31:39;46.00;;;42.40;;
31808;SDS011;18379;48.208;-1.518;2023-03-14T07:36:48;46.73;;;42.67;;
31808;SDS011;18379;48.208;-1.518;2023-03-14T07:47:16;58.23;;;53.53;;
31808;SDS011;18379;48.208;-1.518;2023-03-14T07:52:31;46.97;;;43.30;;
31808;SDS011;18379;48.208;-1.518;2023-03-14T07:57:44;46.57;;;42.80;;
31808;SDS011;18379;48.208;-1.518;2023-03-14T08:08:23;62.17;;;56.70;;
31808;SDS011;18379;48.208;-1.518;2023-03-14T08:13:59;46.33;;;43.37;;
31808;SDS011;18379;48.208;-1.518;2023-03-14T08:19:15;57.27;;;52.57;;
31808;SDS011;18379;48.208;-1.518;2023-03-14T08:24:25;51.97;;;47.63;;
31808;SDS011;18379;48.208;-1.518;2023-03-14T08:29:46;60.67;;;54.90;;
31808;SDS011;18379;48.208;-1.518;2023-03-14T08:34:51;54.53;;;50.20;;
31808;SDS011;18379;48.208;-1.518;2023-03-14T08:39:59;43.83;;;40.67;;
31808;SDS011;18379;48.208;-1.518;2023-03-14T08:45:22;47.07;;;43.07;;
31808;SDS011;18379;48.208;-1.518;2023-03-14T08:50:53;46.97;;;43.63;;
31808;SDS011;18379;48.208;-1.518;2023-03-14T08:55:59;45.87;;;42.13;;
31808;SDS011;18379;48.208;-1.518;2023-03-14T09:01:15;48.33;;;44.57;;
31808;SDS011;18379;48.208;-1.518;2023-03-14T09:06:29;48.10;;;45.03;;
31808;SDS011;18379;48.208;-1.518;2023-03-14T09:11:36;48.73;;;44.47;;
31808;SDS011;18379;48.208;-1.518;2023-03-14T09:16:47;48.67;;;45.03;;
31808;SDS011;18379;48.208;-1.518;2023-03-14T09:21:54;45.97;;;42.73;;
31808;SDS011;18379;48.208;-1.518;2023-03-14T09:27:07;50.03;;;45.97;;
31808;SDS011;18379;48.208;-1.518;2023-03-14T09:32:28;47.03;;;43.47;;
31808;SDS011;18379;48.208;-1.518;2023-03-14T09:37:31;50.10;;;45.97;;
31808;SDS011;18379;48.208;-1.518;2023-03-14T09:42:42;48.60;;;45.27;;
31808;SDS011;18379;48.208;-1.518;2023-03-14T09:48:06;48.57;;;45.33;;
31808;SDS011;18379;48.208;-1.518;2023-03-14T09:53:43;53.27;;;48.77;;
31808;SDS011;18379;48.208;-1.518;2023-03-14T09:59:03;46.77;;;43.73;;
31808;SDS011;18379;48.208;-1.518;2023-03-14T10:04:26;49.93;;;46.40;;
31808;SDS011;18379;48.208;-1.518;2023-03-14T10:09:35;61.80;;;56.30;;
31808;SDS011;18379;48.208;-1.518;2023-03-14T10:14:47;65.83;;;60.50;;
31808;SDS011;18379;48.208;-1.518;2023-03-14T10:19:59;48.13;;;44.67;;
31808;SDS011;18379;48.208;-1.518;2023-03-14T10:25:02;64.40;;;58.67;;
31808;SDS011;18379;48.208;-1.518;2023-03-14T10:41:30;62.67;;;57.30;;
31808;SDS011;18379;48.208;-1.518;2023-03-14T10:46:45;51.17;;;47.70;;
31808;SDS011;18379;48.208;-1.518;2023-03-14T10:57:32;65.93;;;60.37;;
31808;SDS011;18379;48.208;-1.518;2023-03-14T11:08:29;49.00;;;45.57;;
31808;SDS011;18379;48.208;-1.518;2023-03-14T11:24:49;53.37;;;49.57;;
31808;SDS011;18379;48.208;-1.518;2023-03-14T11:36:30;50.43;;;46.70;;
31808;SDS011;18379;48.208;-1.518;2023-03-14T11:41:14;49.77;;;46.27;;
31808;SDS011;18379;48.208;-1.518;2023-03-14T11:46:41;52.60;;;49.10;;
31808;SDS011;18379;48.208;-1.518;2023-03-14T11:57:28;53.47;;;49.50;;
31808;SDS011;18379;48.208;-1.518;2023-03-14T12:13:19;50.97;;;47.33;;
31808;SDS011;18379;48.208;-1.518;2023-03-14T12:29:22;51.57;;;47.73;;
31808;SDS011;18379;48.208;-1.518;2023-03-14T12:34:32;55.50;;;51.03;;
31808;SDS011;18379;48.208;-1.518;2023-03-14T12:45:27;49.07;;;45.93;;
31808;SDS011;18379;48.208;-1.518;2023-03-14T13:01:33;54.97;;;50.87;;
31808;SDS011;18379;48.208;-1.518;2023-03-14T13:11:56;49.60;;;46.47;;
31808;SDS011;18379;48.208;-1.518;2023-03-14T13:17:30;52.43;;;48.47;;
31808;SDS011;18379;48.208;-1.518;2023-03-14T13:22:35;66.27;;;60.77;;
31808;SDS011;18379;48.208;-1.518;2023-03-14T13:27:39;64.50;;;58.97;;
31808;SDS011;18379;48.208;-1.518;2023-03-14T13:32:49;54.33;;;50.10;;
31808;SDS011;18379;48.208;-1.518;2023-03-14T13:37:57;53.83;;;48.93;;
31808;SDS011;18379;48.208;-1.518;2023-03-14T13:43:13;66.20;;;60.20;;
31808;SDS011;18379;48.208;-1.518;2023-03-14T13:48:19;52.77;;;49.00;;
31808;SDS011;18379;48.208;-1.518;2023-03-14T13:53:27;51.57;;;47.53;;
31808;SDS011;18379;48.208;-1.518;2023-03-14T13:58:31;55.13;;;50.63;;
31808;SDS011;18379;48.208;-1.518;2023-03-14T14:03:39;57.00;;;52.70;;
31808;SDS011;18379;48.208;-1.518;2023-03-14T14:08:49;51.13;;;47.27;;
31808;SDS011;18379;48.208;-1.518;2023-03-14T14:13:57;51.30;;;47.60;;
31808;SDS011;18379;48.208;-1.518;2023-03-14T14:19:07;55.30;;;51.07;;
31808;SDS011;18379;48.208;-1.518;2023-03-14T14:24:15;56.03;;;51.80;;
31808;SDS011;18379;48.208;-1.518;2023-03-14T14:29:28;51.83;;;47.77;;
31808;SDS011;18379;48.208;-1.518;2023-03-14T14:34:43;52.90;;;49.17;;
31808;SDS011;18379;48.208;-1.518;2023-03-14T14:39:54;49.47;;;46.43;;
31808;SDS011;18379;48.208;-1.518;2023-03-14T14:45:21;56.33;;;52.20;;
31808;SDS011;18379;48.208;-1.518;2023-03-14T14:50:36;52.00;;;48.70;;
31808;SDS011;18379;48.208;-1.518;2023-03-14T14:56:03;52.10;;;48.77;;
31808;SDS011;18379;48.208;-1.518;2023-03-14T15:01:21;65.57;;;60.60;;
31808;SDS011;18379;48.208;-1.518;2023-03-14T15:06:32;60.17;;;55.63;;
31808;SDS011;18379;48.208;-1.518;2023-03-14T15:11:44;68.63;;;63.50;;
31808;SDS011;18379;48.208;-1.518;2023-03-14T15:16:51;61.77;;;57.23;;
31808;SDS011;18379;48.208;-1.518;2023-03-14T15:21:56;51.97;;;48.57;;
31808;SDS011;18379;48.208;-1.518;2023-03-14T15:26:59;51.43;;;48.17;;
31808;SDS011;18379;48.208;-1.518;2023-03-14T15:32:04;48.93;;;45.70;;
31808;SDS011;18379;48.208;-1.518;2023-03-14T15:37:12;48.57;;;45.33;;
31808;SDS011;18379;48.208;-1.518;2023-03-14T15:42:18;48.53;;;44.77;;
31808;SDS011;18379;48.208;-1.518;2023-03-14T15:47:29;49.43;;;46.03;;
31808;SDS011;18379;48.208;-1.518;2023-03-14T15:52:33;65.00;;;59.90;;
31808;SDS011;18379;48.208;-1.518;2023-03-14T15:57:35;54.83;;;50.80;;
31808;SDS011;18379;48.208;-1.518;2023-03-14T16:02:37;58.30;;;53.93;;
31808;SDS011;18379;48.208;-1.518;2023-03-14T16:07:42;57.23;;;52.73;;
31808;SDS011;18379;48.208;-1.518;2023-03-14T16:12:47;52.57;;;48.50;;
31808;SDS011;18379;48.208;-1.518;2023-03-14T16:17:53;49.47;;;46.10;;
31808;SDS011;18379;48.208;-1.518;2023-03-14T16:22:56;51.10;;;47.63;;
31808;SDS011;18379;48.208;-1.518;2023-03-14T16:27:59;53.03;;;49.23;;
31808;SDS011;18379;48.208;-1.518;2023-03-14T16:33:05;57.60;;;52.90;;
31808;SDS011;18379;48.208;-1.518;2023-03-14T16:38:09;57.80;;;53.10;;
31808;SDS011;18379;48.208;-1.518;2023-03-14T16:43:11;56.30;;;52.13;;
31808;SDS011;18379;48.208;-1.518;2023-03-14T16:48:15;52.50;;;48.43;;
31808;SDS011;18379;48.208;-1.518;2023-03-14T16:53:18;52.70;;;48.97;;
31808;SDS011;18379;48.208;-1.518;2023-03-14T16:58:21;49.80;;;46.30;;
31808;SDS011;18379;48.208;-1.518;2023-03-14T17:03:23;50.83;;;46.80;;
31808;SDS011;18379;48.208;-1.518;2023-03-14T17:08:26;55.83;;;51.57;;
31808;SDS011;18379;48.208;-1.518;2023-03-14T17:13:27;61.40;;;56.43;;
31808;SDS011;18379;48.208;-1.518;2023-03-14T17:18:28;61.53;;;56.13;;
31808;SDS011;18379;48.208;-1.518;2023-03-14T17:23:31;61.07;;;56.47;;
31808;SDS011;18379;48.208;-1.518;2023-03-14T17:28:33;59.37;;;54.17;;
31808;SDS011;18379;48.208;-1.518;2023-03-14T17:33:34;67.80;;;62.10;;
31808;SDS011;18379;48.208;-1.518;2023-03-14T17:38:35;65.40;;;60.10;;
31808;SDS011;18379;48.208;-1.518;2023-03-14T17:43:37;65.57;;;59.87;;
31808;SDS011;18379;48.208;-1.518;2023-03-14T17:48:42;62.80;;;57.40;;
31808;SDS011;18379;48.208;-1.518;2023-03-14T17:53:44;49.67;;;46.03;;
31808;SDS011;18379;48.208;-1.518;2023-03-14T17:58:45;48.03;;;44.87;;
31808;SDS011;18379;48.208;-1.518;2023-03-14T18:03:46;49.53;;;45.67;;
31808;SDS011;18379;48.208;-1.518;2023-03-14T18:08:47;45.23;;;42.07;;
31808;SDS011;18379;48.208;-1.518;2023-03-14T18:13:49;44.80;;;41.80;;
31808;SDS011;18379;48.208;-1.518;2023-03-14T18:18:50;44.57;;;41.60;;
31808;SDS011;18379;48.208;-1.518;2023-03-14T18:23:53;44.40;;;41.03;;
31808;SDS011;18379;48.208;-1.518;2023-03-14T18:28:54;44.00;;;41.20;;
31808;SDS011;18379;48.208;-1.518;2023-03-14T18:33:55;43.63;;;40.70;;
31808;SDS011;18379;48.208;-1.518;2023-03-14T18:38:57;49.30;;;45.27;;
31808;SDS011;18379;48.208;-1.518;2023-03-14T18:43:57;50.37;;;46.30;;
31808;SDS011;18379;48.208;-1.518;2023-03-14T18:48:58;54.57;;;49.73;;
31808;SDS011;18379;48.208;-1.518;2023-03-14T18:54:02;56.73;;;52.27;;
31808;SDS011;18379;48.208;-1.518;2023-03-14T18:59:04;58.23;;;53.50;;
31808;SDS011;18379;48.208;-1.518;2023-03-14T19:04:05;60.43;;;55.30;;
31808;SDS011;18379;48.208;-1.518;2023-03-14T19:09:06;60.33;;;55.23;;
31808;SDS011;18379;48.208;-1.518;2023-03-14T19:14:08;59.07;;;53.80;;
31808;SDS011;18379;48.208;-1.518;2023-03-14T19:19:09;58.90;;;54.20;;
31808;SDS011;18379;48.208;-1.518;2023-03-14T19:24:16;51.53;;;47.63;;
31808;SDS011;18379;48.208;-1.518;2023-03-14T19:29:21;42.50;;;39.80;;
31808;SDS011;18379;48.208;-1.518;2023-03-14T19:34:22;43.13;;;39.70;;
31808;SDS011;18379;48.208;-1.518;2023-03-14T19:39:24;41.73;;;38.90;;
31808;SDS011;18379;48.208;-1.518;2023-03-14T19:44:25;42.87;;;39.70;;
31808;SDS011;18379;48.208;-1.518;2023-03-14T19:49:26;41.60;;;38.60;;
31808;SDS011;18379;48.208;-1.518;2023-03-14T19:54:27;41.00;;;38.23;;
31808;SDS011;18379;48.208;-1.518;2023-03-14T19:59:28;40.53;;;37.93;;
31808;SDS011;18379;48.208;-1.518;2023-03-14T20:04:29;40.67;;;37.90;;
31808;SDS011;18379;48.208;-1.518;2023-03-14T20:09:31;42.20;;;39.20;;
31808;SDS011;18379;48.208;-1.518;2023-03-14T20:14:33;44.53;;;41.27;;
31808;SDS011;18379;48.208;-1.518;2023-03-14T20:19:36;39.53;;;36.73;;
31808;SDS011;18379;48.208;-1.518;2023-03-14T20:24:38;39.77;;;36.90;;
31808;SDS011;18379;48.208;-1.518;2023-03-14T20:29:39;44.73;;;40.63;;
31808;SDS011;18379;48.208;-1.518;2023-03-14T20:34:42;49.13;;;44.30;;
31808;SDS011;18379;48.208;-1.518;2023-03-14T20:39:43;44.40;;;40.40;;
31808;SDS011;18379;48.208;-1.518;2023-03-14T20:44:44;40.07;;;36.93;;
31808;SDS011;18379;48.208;-1.518;2023-03-14T20:49:45;37.03;;;34.70;;
31808;SDS011;18379;48.208;-1.518;2023-03-14T20:54:46;36.93;;;34.60;;
31808;SDS011;18379;48.208;-1.518;2023-03-14T20:59:53;38.80;;;35.57;;
31808;SDS011;18379;48.208;-1.518;2023-03-14T21:04:55;40.33;;;36.70;;
31808;SDS011;18379;48.208;-1.518;2023-03-14T21:09:56;39.03;;;36.47;;
31808;SDS011;18379;48.208;-1.518;2023-03-14T21:14:58;50.27;;;45.90;;
31808;SDS011;18379;48.208;-1.518;2023-03-14T21:19:59;47.87;;;43.97;;
31808;SDS011;18379;48.208;-1.518;2023-03-14T21:25:00;41.73;;;38.33;;
31808;SDS011;18379;48.208;-1.518;2023-03-14T21:30:00;45.33;;;40.93;;
31808;SDS011;18379;48.208;-1.518;2023-03-14T21:35:01;43.53;;;39.70;;
31808;SDS011;18379;48.208;-1.518;2023-03-14T21:40:02;47.97;;;43.07;;
31808;SDS011;18379;48.208;-1.518;2023-03-14T21:45:07;55.37;;;46.10;;
31808;SDS011;18379;48.208;-1.518;2023-03-14T21:50:09;50.10;;;45.00;;
31808;SDS011;18379;48.208;-1.518;2023-03-14T21:55:14;51.00;;;45.43;;
31808;SDS011;18379;48.208;-1.518;2023-03-14T22:00:18;45.33;;;40.93;;
31808;SDS011;18379;48.208;-1.518;2023-03-14T22:05:21;44.53;;;40.57;;
31808;SDS011;18379;48.208;-1.518;2023-03-14T22:10:21;44.13;;;40.03;;
31808;SDS011;18379;48.208;-1.518;2023-03-14T22:15:22;42.30;;;38.93;;
31808;SDS011;18379;48.208;-1.518;2023-03-14T22:20:23;43.30;;;39.43;;
31808;SDS011;18379;48.208;-1.518;2023-03-14T22:25:24;42.33;;;38.10;;
31808;SDS011;18379;48.208;-1.518;2023-03-14T22:30:25;37.60;;;34.70;;
31808;SDS011;18379;48.208;-1.518;2023-03-14T22:35:26;39.47;;;35.93;;
31808;SDS011;18379;48.208;-1.518;2023-03-14T22:40:27;40.13;;;36.77;;
31808;SDS011;18379;48.208;-1.518;2023-03-14T22:45:27;40.93;;;37.30;;
31808;SDS011;18379;48.208;-1.518;2023-03-14T22:50:28;40.47;;;36.90;;
31808;SDS011;18379;48.208;-1.518;2023-03-14T22:55:29;40.87;;;37.17;;
31808;SDS011;18379;48.208;-1.518;2023-03-14T23:05:40;53.67;;;47.83;;
31808;SDS011;18379;48.208;-1.518;2023-03-14T23:10:41;43.90;;;39.47;;
31808;SDS011;18379;48.208;-1.518;2023-03-14T23:15:42;43.37;;;39.33;;
31808;SDS011;18379;48.208;-1.518;2023-03-14T23:20:43;41.20;;;37.13;;
31808;SDS011;18379;48.208;-1.518;2023-03-14T23:25:44;42.77;;;38.50;;
31808;SDS011;18379;48.208;-1.518;2023-03-14T23:30:45;45.63;;;40.73;;
31808;SDS011;18379;48.208;-1.518;2023-03-14T23:35:45;44.40;;;39.83;;
31808;SDS011;18379;48.208;-1.518;2023-03-14T23:40:46;39.67;;;36.50;;
31808;SDS011;18379;48.208;-1.518;2023-03-14T23:45:48;39.63;;;36.47;;
31808;SDS011;18379;48.208;-1.518;2023-03-14T23:50:52;39.97;;;36.53;;
31808;SDS011;18379;48.208;-1.518;2023-03-14T23:55:56;40.73;;;37.50;;
